createdAt,value
2024-04-18T00:04:12.486Z,1.10
2024-04-18T00:09:17.793Z,1.30
2024-04-18T00:14:25.726Z,1.10
2024-04-18T00:19:50.972Z,1.40
2024-04-18T00:25:12.487Z,1.37
2024-04-18T00:30:35.304Z,1.30
2024-04-18T00:35:40.797Z,1.43
2024-04-18T00:40:51.694Z,1.50
2024-04-18T00:46:00.394Z,2.40
2024-04-18T00:51:06.803Z,1.77
2024-04-18T00:56:29.080Z,1.97
2024-04-18T01:01:55.638Z,1.87
2024-04-18T01:07:14.453Z,1.83
2024-04-18T01:12:25.605Z,2.20
2024-04-18T01:17:33.687Z,2.10
2024-04-18T01:22:39.234Z,2.33
2024-04-18T01:27:47.155Z,2.40
2024-04-18T01:32:55.043Z,2.30
2024-04-18T01:38:00.426Z,2.80
2024-04-18T01:43:26.603Z,2.27
2024-04-18T01:48:50.751Z,2.07
2024-04-18T01:53:56.655Z,2.30
2024-04-18T01:59:24.945Z,2.30
2024-04-18T02:04:30.434Z,2.20
2024-04-18T02:09:35.764Z,2.43
2024-04-18T02:15:03.735Z,2.27
2024-04-18T02:20:09.797Z,2.53
2024-04-18T02:25:21.070Z,2.70
2024-04-18T02:30:29.076Z,2.67
2024-04-18T02:35:49.731Z,2.80
2024-04-18T02:41:13.453Z,2.70
2024-04-18T02:46:30.386Z,2.53
2024-04-18T02:51:53.885Z,2.47
2024-04-18T02:57:19.089Z,2.63
2024-04-18T03:02:27.714Z,3.07
2024-04-18T03:07:51.861Z,3.03
2024-04-18T03:12:57.154Z,2.53
2024-04-18T03:18:23.814Z,2.83
2024-04-18T03:23:44.008Z,2.47
2024-04-18T03:29:09.366Z,2.80
2024-04-18T03:34:37.660Z,2.77
2024-04-18T03:39:43.164Z,2.90
2024-04-18T03:44:48.751Z,3.60
2024-04-18T03:49:56.682Z,3.30
2024-04-18T03:55:15.711Z,2.90
2024-04-18T04:00:28.406Z,2.53
2024-04-18T04:05:36.556Z,2.80
2024-04-18T04:10:42.089Z,2.97
2024-04-18T04:15:52.325Z,3.00
2024-04-18T04:21:18.977Z,2.40
2024-04-18T04:26:24.790Z,3.17
2024-04-18T04:31:30.467Z,4.20
2024-04-18T04:36:38.397Z,2.80
2024-04-18T04:41:43.854Z,2.57
2024-04-18T04:46:49.050Z,3.17
2024-04-18T04:51:59.854Z,3.37
2024-04-18T04:57:19.949Z,2.43
2024-04-18T05:02:47.366Z,4.00
2024-04-18T05:08:00.016Z,3.13
2024-04-18T05:13:18.418Z,3.20
2024-04-18T05:18:23.640Z,2.93
2024-04-18T05:23:31.484Z,2.60
2024-04-18T05:29:04.241Z,2.73
2024-04-18T05:34:09.924Z,3.53
2024-04-18T05:39:18.670Z,2.60
2024-04-18T05:44:24.081Z,3.23
2024-04-18T05:49:29.375Z,2.57
2024-04-18T05:54:37.560Z,2.63
2024-04-18T05:59:42.890Z,2.50
2024-04-18T06:04:48.244Z,2.90
2024-04-18T06:10:14.939Z,2.43
2024-04-18T06:15:20.396Z,2.47
2024-04-18T06:20:28.403Z,2.53
2024-04-18T06:25:36.778Z,1.93
2024-04-18T06:30:42.194Z,1.70
2024-04-18T06:35:50.159Z,2.50
2024-04-18T06:40:58.322Z,2.10
2024-04-18T06:46:19.349Z,2.20
2024-04-18T06:51:24.696Z,2.30
2024-04-18T06:56:32.640Z,2.87
2024-04-18T07:01:37.962Z,2.30
2024-04-18T07:06:43.608Z,1.97
2024-04-18T07:11:51.499Z,1.90
2024-04-18T07:16:56.793Z,2.43
2024-04-18T07:22:09.458Z,1.90
2024-04-18T07:27:35.888Z,1.30
2024-04-18T07:32:44.631Z,1.20
2024-04-18T07:37:52.771Z,1.47
2024-04-18T07:43:00.665Z,1.70
2024-04-18T07:48:06.184Z,1.43
2024-04-18T07:53:12.313Z,1.63
2024-04-18T07:58:21.295Z,1.40
2024-04-18T08:03:28.722Z,1.53
2024-04-18T08:08:37.375Z,2.10
2024-04-18T08:13:52.016Z,1.50
2024-04-18T08:18:59.390Z,1.77
2024-04-18T08:24:04.753Z,3.33
2024-04-18T08:29:12.548Z,1.77
2024-04-18T08:34:18.812Z,1.70
2024-04-18T08:39:24.691Z,1.67
2024-04-18T08:44:33.029Z,1.63
2024-04-18T08:49:41.647Z,2.13
2024-04-18T08:54:50.062Z,2.00
2024-04-18T09:00:02.638Z,1.37
2024-04-18T09:05:11.292Z,1.97
2024-04-18T09:10:24.990Z,1.37
2024-04-18T09:15:33.273Z,1.67
2024-04-18T09:20:40.993Z,2.00
2024-04-18T09:25:46.434Z,1.47
2024-04-18T09:30:57.470Z,1.70
2024-04-18T09:36:04.878Z,1.50
2024-04-18T09:41:15.789Z,2.10
2024-04-18T09:46:26.920Z,1.93
2024-04-18T09:51:32.604Z,2.10
2024-04-18T09:56:38.601Z,1.40
2024-04-18T10:01:47.008Z,1.20
2024-04-18T10:06:53.940Z,1.13
2024-04-18T10:11:59.237Z,1.00
2024-04-18T10:17:08.983Z,1.20
2024-04-18T10:22:29.365Z,1.50
2024-04-18T10:27:46.881Z,0.83
2024-04-18T10:32:56.694Z,0.80
2024-04-18T10:38:03.895Z,1.20
2024-04-18T10:43:18.762Z,2.00
2024-04-18T10:48:28.569Z,1.27
2024-04-18T10:53:33.909Z,0.40
2024-04-18T10:58:39.468Z,1.33
2024-04-18T11:03:49.873Z,0.80
2024-04-18T11:08:55.195Z,0.50
2024-04-18T11:14:00.988Z,0.70
2024-04-18T11:19:09.236Z,1.80
2024-04-18T11:24:15.162Z,2.00
2024-04-18T11:29:20.476Z,0.87
2024-04-18T11:34:29.383Z,0.50
2024-04-18T11:39:34.612Z,0.83
2024-04-18T11:44:40.010Z,0.37
2024-04-18T11:49:48.821Z,0.80
2024-04-18T11:54:54.526Z,0.90
2024-04-18T11:59:59.742Z,0.97
2024-04-18T12:05:12.659Z,0.70
2024-04-18T12:10:26.136Z,0.50
2024-04-18T12:15:41.442Z,1.30
2024-04-18T12:21:09.550Z,0.47
2024-04-18T12:26:15.244Z,1.00
2024-04-18T12:31:23.119Z,0.97
2024-04-18T12:36:30.975Z,2.67
2024-04-18T12:41:53.146Z,1.20
2024-04-18T12:46:58.544Z,0.93
2024-04-18T12:52:27.173Z,0.60
2024-04-18T12:57:40.166Z,0.30
2024-04-18T13:02:45.532Z,0.40
2024-04-18T13:07:53.698Z,0.20
2024-04-18T13:12:58.937Z,0.50
2024-04-18T13:18:12.960Z,0.60
2024-04-18T13:23:38.332Z,0.20
2024-04-18T13:28:43.725Z,0.40
2024-04-18T13:33:56.632Z,0.60
2024-04-18T13:39:04.712Z,0.90
2024-04-18T13:44:10.499Z,0.83
2024-04-18T13:49:19.810Z,0.27
2024-04-18T13:54:33.736Z,0.23
2024-04-18T13:59:39.284Z,0.77
2024-04-18T14:04:53.344Z,0.30
2024-04-18T14:10:01.136Z,0.40
2024-04-18T14:15:37.325Z,1.13
2024-04-18T14:21:01.375Z,0.60
2024-04-18T14:26:09.416Z,0.40
2024-04-18T14:31:25.886Z,0.50
2024-04-18T14:36:31.479Z,0.13
2024-04-18T14:41:39.800Z,0.20
2024-04-18T14:46:45.041Z,0.30
2024-04-18T14:51:59.561Z,0.43
2024-04-18T14:57:08.286Z,0.23
2024-04-18T15:02:17.142Z,0.20
2024-04-18T15:07:40.621Z,0.60
2024-04-18T15:12:57.138Z,0.50
2024-04-18T15:18:02.627Z,0.40
2024-04-18T15:23:09.684Z,0.57
2024-04-18T15:28:17.938Z,0.60
2024-04-18T15:33:23.406Z,0.23
2024-04-18T15:38:28.699Z,0.40
2024-04-18T15:43:55.860Z,0.50
2024-04-18T15:49:13.471Z,1.03
2024-04-18T15:54:18.840Z,0.47
2024-04-18T15:59:26.763Z,0.20
2024-04-18T16:04:32.278Z,0.30
2024-04-18T16:09:40.510Z,0.30
2024-04-18T16:15:18.777Z,0.07
2024-04-18T16:20:38.961Z,0.20
2024-04-18T16:25:44.456Z,0.33
2024-04-18T16:31:12.598Z,0.10
2024-04-18T16:36:27.524Z,0.20
2024-04-18T16:41:40.615Z,0.80
2024-04-18T16:46:48.658Z,0.10
2024-04-18T16:51:53.974Z,0.50
2024-04-18T16:57:05.508Z,0.30
2024-04-18T17:02:28.768Z,0.30
2024-04-18T17:07:33.922Z,0.23
2024-04-18T17:12:57.664Z,0.37
2024-04-18T17:18:24.130Z,0.30
2024-04-18T17:23:34.947Z,0.30
2024-04-18T17:28:40.213Z,0.53
2024-04-18T17:33:48.114Z,0.40
2024-04-18T17:38:54.365Z,0.83
2024-04-18T17:44:09.048Z,0.77
2024-04-18T17:49:33.961Z,0.40
2024-04-18T17:54:39.347Z,0.77
2024-04-18T17:59:44.660Z,0.57
2024-04-18T18:04:52.756Z,0.20
2024-04-18T18:09:58.140Z,0.30
2024-04-18T18:15:04.118Z,0.97
2024-04-18T18:20:13.233Z,0.43
2024-04-18T18:25:36.453Z,0.30
2024-04-18T18:30:42.825Z,0.30
2024-04-18T18:36:06.214Z,0.30
2024-04-18T18:41:11.679Z,0.43
2024-04-18T18:46:16.904Z,0.30
2024-04-18T18:51:25.141Z,0.53
2024-04-18T18:56:30.460Z,0.30
2024-04-18T19:01:57.320Z,0.30
2024-04-18T19:07:05.459Z,0.27
2024-04-18T19:12:12.541Z,0.37
2024-04-18T19:17:18.275Z,0.23
2024-04-18T19:22:26.166Z,0.63
2024-04-18T19:27:31.479Z,0.40
2024-04-18T19:32:36.842Z,0.50
2024-04-18T19:38:04.758Z,0.80
2024-04-18T19:43:38.997Z,0.77
2024-04-18T19:48:44.200Z,0.57
2024-04-18T19:53:52.104Z,0.70
2024-04-18T19:58:57.692Z,0.40
2024-04-18T20:04:03.278Z,0.60
2024-04-18T20:09:11.681Z,0.40
2024-04-18T20:14:16.954Z,0.47
2024-04-18T20:19:24.204Z,0.50
2024-04-18T20:24:32.366Z,0.23
2024-04-18T20:29:58.435Z,0.40
2024-04-18T20:35:04.023Z,0.43
2024-04-18T20:40:12.976Z,0.57
2024-04-18T20:45:18.409Z,0.50
2024-04-18T20:50:23.959Z,0.40
2024-04-18T20:55:31.804Z,0.80
2024-04-18T21:00:37.524Z,0.43
2024-04-18T21:05:47.525Z,0.50
2024-04-18T21:10:55.620Z,0.50
2024-04-18T21:16:21.208Z,0.60
2024-04-18T21:21:26.604Z,0.40
2024-04-18T21:26:34.714Z,0.50
2024-04-18T21:31:39.957Z,1.27
2024-04-18T21:36:45.298Z,1.47
2024-04-18T21:41:53.289Z,0.50
2024-04-18T21:46:58.740Z,0.50
2024-04-18T21:52:07.491Z,0.80
2024-04-18T21:57:15.689Z,0.43
2024-04-18T22:02:21.005Z,0.50
2024-04-18T22:07:27.628Z,0.70
2024-04-18T22:12:35.556Z,0.60
2024-04-18T22:17:40.815Z,1.17
2024-04-18T22:22:46.247Z,0.87
2024-04-18T22:27:54.339Z,0.57
2024-04-18T22:32:59.753Z,0.50
2024-04-18T22:38:05.041Z,0.60
2024-04-18T22:43:12.916Z,0.50
2024-04-18T22:48:18.500Z,0.93
2024-04-18T22:53:23.870Z,0.53
2024-04-18T22:58:31.750Z,0.73
2024-04-18T23:03:43.111Z,0.50
2024-04-18T23:08:51.564Z,1.90
2024-04-18T23:13:59.342Z,1.07
2024-04-18T23:19:04.785Z,0.70
2024-04-18T23:24:10.146Z,0.77
2024-04-18T23:29:18.100Z,0.90
2024-04-18T23:34:23.442Z,1.10
2024-04-18T23:39:40.753Z,0.77
2024-04-18T23:44:48.724Z,1.47
2024-04-18T23:49:54.012Z,0.70
2024-04-18T23:54:59.520Z,0.70
